createdAt,value
2023-05-18T00:01:14.493Z,4.57
2023-05-18T00:03:42.615Z,4.80
2023-05-18T00:06:11.888Z,4.65
2023-05-18T00:08:39.482Z,5.03
2023-05-18T00:11:07.498Z,4.88
2023-05-18T00:13:35.252Z,11.73
2023-05-18T00:16:02.837Z,8.23
2023-05-18T00:18:30.905Z,9.00
2023-05-18T00:20:59.714Z,8.10
2023-05-18T00:23:30.918Z,7.82
2023-05-18T00:25:59.259Z,6.93
2023-05-18T00:28:27.252Z,7.63
2023-05-18T00:30:55.686Z,6.05
2023-05-18T00:33:23.586Z,6.72
2023-05-18T00:35:51.401Z,6.45
2023-05-18T00:38:19.049Z,9.35
2023-05-18T00:40:48.058Z,7.55
2023-05-18T00:43:15.662Z,5.38
2023-05-18T00:45:43.318Z,5.22
2023-05-18T00:48:11.075Z,5.10
2023-05-18T00:50:38.859Z,5.70
2023-05-18T00:53:06.497Z,4.70
2023-05-18T00:55:34.261Z,4.15
2023-05-18T00:58:05.341Z,3.95
2023-05-18T01:00:33.846Z,3.85
2023-05-18T01:03:02.123Z,3.85
2023-05-18T01:05:30.160Z,4.30
2023-05-18T01:07:58.082Z,4.78
2023-05-18T01:10:25.858Z,4.10
2023-05-18T01:12:57.802Z,4.03
2023-05-18T01:15:32.419Z,3.60
2023-05-18T01:18:06.107Z,4.03
2023-05-18T01:20:39.017Z,4.45
2023-05-18T01:23:30.406Z,3.80
2023-05-18T01:26:15.311Z,3.17
2023-05-18T01:28:46.233Z,4.28
2023-05-18T01:31:15.990Z,4.32
2023-05-18T01:33:43.821Z,4.63
2023-05-18T01:36:11.932Z,3.95
2023-05-18T01:38:43.107Z,4.65
2023-05-18T01:41:19.070Z,3.47
2023-05-18T01:43:53.183Z,4.45
2023-05-18T01:46:33.212Z,4.32
2023-05-18T01:49:07.934Z,5.30
2023-05-18T01:51:42.770Z,5.45
2023-05-18T01:54:12.382Z,4.65
2023-05-18T01:56:41.755Z,4.05
2023-05-18T01:59:09.540Z,4.22
2023-05-18T02:01:37.208Z,4.35
2023-05-18T02:04:09.177Z,4.50
2023-05-18T02:06:37.335Z,4.82
2023-05-18T02:09:05.599Z,4.30
2023-05-18T02:11:33.313Z,4.53
2023-05-18T02:14:02.224Z,5.10
2023-05-18T02:16:29.889Z,4.75
2023-05-18T02:18:57.530Z,5.10
2023-05-18T02:21:25.980Z,4.93
2023-05-18T02:23:53.741Z,3.80
2023-05-18T02:26:21.348Z,5.05
2023-05-18T02:28:48.979Z,4.03
2023-05-18T02:31:17.964Z,4.70
2023-05-18T02:33:45.603Z,4.80
2023-05-18T02:36:15.102Z,4.25
2023-05-18T02:38:44.662Z,4.45
2023-05-18T02:41:12.579Z,5.60
2023-05-18T02:43:40.165Z,4.22
2023-05-18T02:46:07.976Z,4.78
2023-05-18T02:48:36.990Z,5.22
2023-05-18T02:51:04.696Z,4.47
2023-05-18T02:53:32.283Z,5.07
2023-05-18T02:56:03.329Z,4.15
2023-05-18T02:58:31.102Z,4.93
2023-05-18T03:00:59.990Z,5.50
2023-05-18T03:03:27.628Z,5.05
2023-05-18T03:05:56.548Z,6.00
2023-05-18T03:08:27.090Z,4.47
2023-05-18T03:10:54.841Z,4.75
2023-05-18T03:13:22.413Z,5.38
2023-05-18T03:15:50.993Z,5.22
2023-05-18T03:18:19.060Z,5.22
2023-05-18T03:20:46.733Z,5.35
2023-05-18T03:23:15.797Z,5.10
2023-05-18T03:25:43.399Z,5.38
2023-05-18T03:28:10.970Z,5.15
2023-05-18T03:30:38.684Z,4.90
2023-05-18T03:33:06.331Z,5.35
2023-05-18T03:35:34.096Z,4.88
2023-05-18T03:38:01.731Z,4.93
2023-05-18T03:40:30.893Z,4.65
2023-05-18T03:42:58.474Z,4.97
2023-05-18T03:45:26.058Z,5.45
2023-05-18T03:47:53.726Z,5.13
2023-05-18T03:50:21.607Z,5.50
2023-05-18T03:52:49.226Z,5.05
2023-05-18T03:55:17.305Z,4.75
2023-05-18T03:57:46.200Z,4.97
2023-05-18T04:00:15.749Z,4.75
2023-05-18T04:02:43.412Z,4.68
2023-05-18T04:05:11.022Z,4.63
2023-05-18T04:07:43.971Z,5.30
2023-05-18T04:10:12.328Z,4.93
2023-05-18T04:12:40.026Z,5.47
2023-05-18T04:15:10.274Z,4.90
2023-05-18T04:17:39.699Z,4.72
2023-05-18T04:20:13.768Z,4.95
2023-05-18T04:22:46.270Z,4.78
2023-05-18T04:25:14.387Z,4.93
2023-05-18T04:27:43.207Z,4.88
2023-05-18T04:30:13.480Z,5.13
2023-05-18T04:32:42.914Z,5.32
2023-05-18T04:35:12.015Z,5.00
2023-05-18T04:37:41.275Z,5.20
2023-05-18T04:40:13.417Z,5.10
2023-05-18T04:42:45.249Z,4.88
2023-05-18T04:45:17.763Z,4.90
2023-05-18T04:47:47.167Z,4.32
2023-05-18T04:50:16.091Z,4.78
2023-05-18T04:52:48.724Z,5.43
2023-05-18T04:55:22.815Z,5.03
2023-05-18T04:57:50.559Z,5.43
2023-05-18T05:00:20.323Z,5.00
2023-05-18T05:02:48.009Z,4.80
2023-05-18T05:05:15.625Z,4.75
2023-05-18T05:07:43.189Z,5.10
2023-05-18T05:10:11.261Z,5.03
2023-05-18T05:12:39.106Z,4.82
2023-05-18T05:15:08.114Z,4.28
2023-05-18T05:17:37.029Z,4.05
2023-05-18T05:20:05.346Z,4.35
2023-05-18T05:22:32.929Z,4.85
2023-05-18T05:40:37.559Z,4.30
2023-05-18T05:44:07.479Z,3.55
2023-05-18T06:14:21.213Z,2.60
2023-05-18T06:16:49.115Z,2.58
2023-05-18T06:19:17.148Z,2.90
2023-05-18T06:21:46.856Z,3.38
2023-05-18T06:24:16.304Z,2.53
2023-05-18T06:26:45.205Z,2.33
2023-05-18T06:29:13.979Z,2.42
2023-05-18T06:35:45.714Z,2.58
2023-05-18T06:38:14.342Z,2.28
2023-05-18T06:40:59.035Z,2.22
2023-05-18T06:43:47.351Z,2.60
2023-05-18T07:04:08.557Z,2.47
2023-05-18T07:06:37.600Z,2.60
2023-05-18T07:09:05.726Z,3.70
2023-05-18T07:11:36.506Z,2.83
2023-05-18T07:14:04.259Z,2.60
2023-05-18T07:16:42.766Z,2.58
2023-05-18T07:26:35.592Z,2.78
2023-05-18T07:29:43.669Z,2.35
2023-05-18T07:39:01.859Z,2.60
2023-05-18T07:45:50.606Z,2.67
2023-05-18T07:52:54.226Z,2.80
2023-05-18T07:55:46.757Z,2.60
2023-05-18T07:58:29.959Z,3.13
2023-05-18T08:01:07.031Z,2.58
2023-05-18T08:03:43.410Z,3.25
2023-05-18T08:06:13.244Z,2.70
2023-05-18T08:08:43.555Z,3.17
2023-05-18T08:11:15.137Z,3.05
2023-05-18T08:13:44.090Z,3.58
2023-05-18T08:16:17.351Z,3.00
2023-05-18T08:18:55.427Z,3.22
2023-05-18T08:21:49.213Z,2.75
2023-05-18T08:24:30.796Z,3.15
2023-05-18T08:27:17.333Z,3.28
2023-05-18T08:30:01.056Z,3.15
2023-05-18T08:32:42.880Z,3.20
2023-05-18T08:35:11.388Z,2.92
2023-05-18T08:57:04.978Z,3.28
2023-05-18T09:00:22.217Z,3.00
2023-05-18T09:02:51.857Z,3.13
2023-05-18T09:09:01.595Z,2.75
2023-05-18T09:25:21.106Z,2.78
2023-05-18T09:30:49.901Z,3.03
2023-05-18T09:33:22.048Z,2.60
2023-05-18T09:35:51.951Z,2.30
2023-05-18T09:38:23.973Z,2.45
2023-05-18T09:40:53.582Z,2.22
2023-05-18T09:43:23.326Z,2.75
2023-05-18T09:46:00.974Z,2.40
2023-05-18T09:48:35.395Z,2.35
2023-05-18T09:54:08.432Z,2.67
2023-05-18T09:56:39.724Z,2.70
2023-05-18T09:59:26.190Z,2.50
2023-05-18T10:02:19.643Z,2.88
2023-05-18T10:04:54.344Z,2.63
2023-05-18T10:07:25.345Z,3.00
2023-05-18T10:10:03.781Z,2.60
2023-05-18T10:12:34.223Z,2.65
2023-05-18T10:15:07.144Z,2.70
2023-05-18T10:17:38.511Z,4.28
2023-05-18T10:20:11.583Z,2.97
2023-05-18T10:22:43.289Z,2.83
2023-05-18T10:30:38.873Z,2.17
2023-05-18T10:33:20.567Z,3.13
2023-05-18T10:35:53.122Z,2.17
2023-05-18T10:38:22.390Z,2.72
2023-05-18T10:40:52.141Z,2.13
2023-05-18T10:43:23.873Z,2.17
2023-05-18T10:45:55.133Z,2.35
2023-05-18T10:48:24.431Z,2.35
2023-05-18T10:50:53.573Z,3.05
2023-05-18T10:53:23.157Z,3.78
2023-05-18T10:55:51.731Z,3.00
2023-05-18T10:58:21.277Z,2.63
2023-05-18T11:00:51.964Z,2.25
2023-05-18T11:03:22.358Z,2.30
2023-05-18T11:05:51.226Z,2.05
2023-05-18T11:08:28.425Z,2.50
2023-05-18T11:11:04.350Z,2.08
2023-05-18T11:13:33.622Z,2.15
2023-05-18T11:16:08.821Z,2.88
2023-05-18T11:18:44.761Z,2.30
2023-05-18T11:21:36.555Z,2.08
2023-05-18T11:24:19.911Z,2.35
2023-05-18T11:26:49.587Z,2.80
2023-05-18T11:29:19.246Z,2.08
2023-05-18T11:31:48.089Z,3.35
2023-05-18T11:34:39.735Z,2.30
2023-05-18T11:37:10.540Z,2.20
2023-05-18T11:39:47.978Z,2.28
2023-05-18T11:42:20.552Z,2.10
2023-05-18T11:44:54.312Z,2.45
2023-05-18T11:47:22.972Z,2.00
2023-05-18T11:49:53.202Z,3.30
2023-05-18T11:52:22.935Z,2.03
2023-05-18T11:54:53.489Z,2.53
2023-05-18T11:57:25.093Z,2.03
2023-05-18T11:59:56.865Z,2.13
2023-05-18T12:02:27.241Z,1.98
2023-05-18T12:05:00.520Z,3.35
2023-05-18T12:07:30.458Z,2.25
2023-05-18T12:09:59.988Z,3.33
2023-05-18T12:12:30.448Z,2.08
2023-05-18T12:15:00.218Z,2.60
2023-05-18T12:17:41.336Z,1.95
2023-05-18T12:20:13.467Z,2.33
2023-05-18T12:22:48.164Z,1.85
2023-05-18T12:25:24.884Z,1.65
2023-05-18T12:27:56.693Z,2.13
2023-05-18T12:30:35.195Z,1.58
2023-05-18T12:33:07.901Z,1.95
2023-05-18T12:35:39.944Z,2.30
2023-05-18T12:38:09.277Z,2.00
2023-05-18T12:40:45.106Z,1.83
2023-05-18T12:43:15.572Z,2.17
2023-05-18T12:45:47.118Z,2.05
2023-05-18T12:48:16.824Z,1.80
2023-05-18T12:50:52.003Z,2.15
2023-05-18T12:53:25.043Z,2.13
2023-05-18T12:56:02.781Z,2.40
2023-05-18T12:58:36.045Z,2.10
2023-05-18T13:01:10.802Z,1.65
2023-05-18T13:03:42.515Z,2.28
2023-05-18T13:06:15.007Z,2.08
2023-05-18T13:11:17.706Z,1.90
2023-05-18T13:14:15.644Z,2.33
2023-05-18T13:16:46.872Z,1.88
2023-05-18T13:19:20.148Z,2.15
2023-05-18T13:22:02.022Z,1.42
2023-05-18T13:24:30.358Z,2.47
2023-05-18T13:27:00.427Z,2.47
2023-05-18T13:29:28.618Z,1.95
2023-05-18T13:31:56.358Z,1.90
2023-05-18T13:34:24.460Z,1.85
2023-05-18T13:36:53.722Z,2.30
2023-05-18T13:39:22.158Z,1.70
2023-05-18T13:41:49.946Z,2.10
2023-05-18T13:44:18.280Z,2.08
2023-05-18T13:46:47.149Z,1.67
2023-05-18T13:49:14.934Z,3.00
2023-05-18T13:51:43.809Z,2.15
2023-05-18T13:54:13.265Z,2.05
2023-05-18T13:56:41.049Z,2.20
2023-05-18T13:59:08.904Z,2.15
2023-05-18T14:01:36.899Z,1.92
2023-05-18T14:04:04.731Z,1.90
2023-05-18T14:06:32.509Z,2.05
2023-05-18T14:09:01.534Z,1.80
2023-05-18T14:11:34.440Z,2.25
2023-05-18T14:14:02.598Z,1.75
2023-05-18T14:19:05.540Z,2.03
2023-05-18T14:21:33.224Z,2.35
2023-05-18T14:24:04.049Z,1.85
2023-05-18T14:26:33.104Z,1.85
2023-05-18T14:29:01.010Z,2.08
2023-05-18T14:31:28.768Z,1.77
2023-05-18T14:33:56.508Z,1.55
2023-05-18T14:36:24.318Z,1.77
2023-05-18T14:38:52.184Z,2.40
2023-05-18T14:41:21.306Z,1.75
2023-05-18T14:43:51.101Z,1.63
2023-05-18T14:46:18.919Z,1.90
2023-05-18T14:48:46.594Z,1.83
2023-05-18T14:51:15.842Z,1.50
2023-05-18T14:53:43.480Z,2.17
2023-05-18T14:56:12.269Z,2.38
2023-05-18T14:58:39.857Z,2.22
2023-05-18T15:01:08.803Z,2.30
2023-05-18T15:03:36.541Z,2.08
2023-05-18T15:06:04.316Z,1.73
2023-05-18T15:08:32.049Z,2.53
2023-05-18T15:10:59.776Z,1.92
2023-05-18T15:13:27.391Z,2.05
2023-05-18T15:15:55.257Z,2.15
2023-05-18T15:18:24.409Z,1.80
2023-05-18T15:20:52.400Z,1.45
2023-05-18T15:23:20.085Z,1.90
2023-05-18T15:25:47.852Z,1.98
2023-05-18T15:28:15.682Z,2.03
2023-05-18T15:30:43.287Z,2.08
2023-05-18T15:33:10.973Z,1.75
2023-05-18T15:35:39.972Z,2.00
2023-05-18T15:38:07.560Z,4.53
2023-05-18T15:40:35.197Z,2.00
2023-05-18T15:43:03.072Z,2.33
2023-05-18T15:45:30.753Z,2.05
2023-05-18T15:47:58.389Z,2.00
2023-05-18T15:50:26.699Z,1.90
2023-05-18T15:53:10.753Z,1.85
2023-05-18T15:55:38.869Z,1.70
2023-05-18T15:58:06.380Z,1.33
2023-05-18T16:00:33.952Z,3.08
2023-05-18T16:03:01.673Z,3.10
2023-05-18T16:05:29.428Z,2.30
2023-05-18T16:07:58.340Z,2.33
2023-05-18T16:10:25.950Z,1.73
2023-05-18T16:12:53.570Z,1.88
2023-05-18T16:15:24.381Z,2.00
2023-05-18T16:17:52.170Z,3.47
2023-05-18T16:20:21.074Z,1.90
2023-05-18T16:22:49.253Z,2.03
2023-05-18T16:25:18.238Z,1.95
2023-05-18T16:27:45.812Z,2.53
2023-05-18T16:30:13.733Z,2.70
2023-05-18T16:32:43.205Z,2.35
2023-05-18T16:35:11.170Z,2.38
2023-05-18T16:37:39.359Z,2.15
2023-05-18T16:40:08.377Z,1.80
2023-05-18T16:42:37.440Z,2.05
2023-05-18T16:45:05.655Z,1.50
2023-05-18T16:47:33.249Z,2.50
2023-05-18T16:50:01.416Z,2.33
2023-05-18T16:52:29.127Z,1.90
2023-05-18T16:54:56.679Z,2.60
2023-05-18T16:57:27.313Z,2.17
2023-05-18T16:59:56.564Z,2.10
2023-05-18T17:02:24.321Z,1.75
2023-05-18T17:04:52.262Z,1.98
2023-05-18T17:07:19.778Z,1.92
2023-05-18T17:09:47.299Z,1.95
2023-05-18T17:12:14.891Z,1.92
2023-05-18T17:14:42.421Z,2.33
2023-05-18T17:17:11.534Z,2.30
2023-05-18T17:19:40.293Z,2.53
2023-05-18T17:22:09.532Z,1.70
2023-05-18T17:24:37.230Z,2.13
2023-05-18T17:27:05.809Z,1.95
2023-05-18T17:29:33.408Z,2.50
2023-05-18T17:32:00.979Z,2.20
2023-05-18T17:34:30.581Z,1.98
2023-05-18T17:36:58.660Z,2.13
2023-05-18T17:39:26.454Z,2.20
2023-05-18T17:41:54.436Z,2.95
2023-05-18T17:44:22.098Z,2.70
2023-05-18T17:46:50.936Z,2.17
2023-05-18T17:49:18.651Z,2.42
2023-05-18T17:51:47.563Z,2.20
2023-05-18T17:54:15.314Z,21.58
2023-05-18T17:56:42.898Z,4.28
2023-05-18T17:59:10.763Z,2.28
2023-05-18T18:01:38.429Z,2.20
2023-05-18T18:04:06.169Z,2.15
2023-05-18T18:06:35.532Z,2.28
2023-05-18T18:09:05.561Z,2.03
2023-05-18T18:11:35.160Z,2.97
2023-05-18T18:14:03.190Z,1.80
2023-05-18T18:16:30.871Z,2.35
2023-05-18T18:18:59.417Z,2.63
2023-05-18T18:21:27.044Z,2.17
2023-05-18T18:23:54.728Z,2.45
2023-05-18T18:26:23.623Z,2.05
2023-05-18T18:28:51.197Z,2.60
2023-05-18T18:31:20.740Z,3.05
2023-05-18T18:33:50.279Z,2.35
2023-05-18T18:36:18.123Z,2.40
2023-05-18T18:38:46.001Z,2.75
2023-05-18T18:41:17.033Z,2.47
2023-05-18T18:43:45.977Z,2.38
2023-05-18T18:46:13.685Z,2.60
2023-05-18T18:48:41.261Z,3.15
2023-05-18T18:51:08.798Z,2.30
2023-05-18T18:53:36.347Z,2.40
2023-05-18T18:56:03.918Z,2.15
2023-05-18T18:58:31.502Z,2.45
2023-05-18T19:01:00.487Z,2.22
2023-05-18T19:03:28.200Z,2.33
2023-05-18T19:05:55.909Z,2.10
2023-05-18T19:08:23.512Z,2.65
2023-05-18T19:10:51.212Z,2.45
2023-05-18T19:13:18.750Z,2.40
2023-05-18T19:15:47.089Z,2.88
2023-05-18T19:18:16.130Z,2.15
2023-05-18T19:20:43.746Z,2.20
2023-05-18T19:23:11.421Z,2.40
2023-05-18T19:31:35.318Z,2.40
2023-05-18T19:34:17.954Z,2.78
2023-05-18T19:39:40.287Z,2.80
2023-05-18T19:45:20.633Z,3.00
2023-05-18T19:48:18.970Z,3.30
2023-05-18T19:50:53.561Z,2.67
2023-05-18T19:53:23.688Z,2.80
2023-05-18T19:56:19.359Z,2.67
2023-05-18T20:01:41.552Z,2.88
2023-05-18T20:11:30.411Z,2.53
2023-05-18T20:23:47.421Z,2.80
2023-05-18T20:30:33.434Z,2.50
2023-05-18T20:54:12.157Z,2.40
2023-05-18T20:56:51.772Z,2.25
2023-05-18T20:59:26.395Z,2.47
2023-05-18T21:01:57.079Z,2.38
2023-05-18T21:04:34.348Z,2.67
2023-05-18T21:07:02.181Z,2.58
2023-05-18T21:09:32.029Z,2.40
2023-05-18T21:11:59.634Z,2.55
2023-05-18T21:14:27.210Z,3.03
2023-05-18T21:16:54.859Z,2.88
2023-05-18T21:19:23.032Z,2.90
2023-05-18T21:21:50.641Z,2.92
2023-05-18T21:24:18.191Z,2.53
2023-05-18T21:26:47.134Z,2.70
2023-05-18T21:29:14.691Z,2.33
2023-05-18T21:31:42.330Z,2.65
2023-05-18T21:34:10.031Z,2.20
2023-05-18T21:36:37.626Z,2.60
2023-05-18T21:39:09.004Z,2.72
2023-05-18T21:41:39.179Z,2.58
2023-05-18T21:44:08.131Z,2.30
2023-05-18T21:46:36.470Z,2.47
2023-05-18T21:49:05.399Z,2.47
2023-05-18T21:51:33.160Z,2.45
2023-05-18T21:54:01.252Z,2.83
2023-05-18T21:56:29.852Z,2.47
2023-05-18T21:58:57.801Z,2.72
2023-05-18T22:01:26.724Z,2.53
2023-05-18T22:03:54.807Z,2.85
2023-05-18T22:06:22.435Z,2.67
2023-05-18T22:08:51.474Z,2.72
2023-05-18T22:11:19.028Z,2.63
2023-05-18T22:13:46.616Z,2.78
2023-05-18T22:16:14.277Z,2.90
2023-05-18T22:18:43.200Z,2.80
2023-05-18T22:21:10.765Z,3.30
2023-05-18T22:23:39.150Z,2.55
2023-05-18T22:26:07.072Z,3.05
2023-05-18T22:28:34.700Z,2.50
2023-05-18T22:31:02.273Z,2.08
2023-05-18T22:33:29.849Z,2.97
2023-05-18T22:35:58.775Z,2.60
2023-05-18T22:38:26.791Z,2.60
2023-05-18T22:40:54.374Z,2.30
2023-05-18T22:43:21.936Z,2.50
2023-05-18T22:45:49.837Z,3.05
2023-05-18T22:48:17.471Z,2.90
2023-05-18T22:50:45.031Z,2.90
2023-05-18T22:53:13.986Z,2.40
2023-05-18T22:55:41.581Z,2.83
2023-05-18T22:58:09.182Z,3.13
2023-05-18T23:00:36.713Z,2.72
2023-05-18T23:03:04.565Z,2.85
2023-05-18T23:05:32.739Z,2.67
2023-05-18T23:08:02.675Z,2.92
2023-05-18T23:10:31.925Z,3.25
2023-05-18T23:12:59.837Z,3.30
2023-05-18T23:15:27.782Z,2.75
2023-05-18T23:17:55.498Z,2.33
2023-05-18T23:20:23.715Z,3.20
2023-05-18T23:22:51.504Z,3.17
2023-05-18T23:25:19.294Z,2.22
2023-05-18T23:27:48.183Z,2.97
2023-05-18T23:30:16.003Z,2.88
2023-05-18T23:32:45.385Z,2.20
2023-05-18T23:35:14.498Z,3.33
2023-05-18T23:37:43.582Z,2.40
2023-05-18T23:40:12.953Z,2.88
2023-05-18T23:42:41.475Z,2.80
2023-05-18T23:45:11.879Z,3.00
2023-05-18T23:47:39.934Z,3.65
2023-05-18T23:50:09.008Z,3.05
2023-05-18T23:52:37.656Z,2.80
2023-05-18T23:55:08.298Z,2.80
2023-05-18T23:57:36.274Z,2.75
